Aérodrome :
LOGIN :

S'inscrire | Disclaimer

   EN    FR    IT 

 










Légende :    VFR   VFR Marginal   IFR   IFR Intensif   IFR Très Intensif
Visi : 
Plafond : 
>= 8 km
>= 3000ft
5 à 8 km
1000 à 3000 ft
1500m à 5 km
500 à 1000 ft
800 à 1500m
200 à 500 ft
< 800m
< 200 ft
Symboles :   Orages  Brouillard  Fortes neiges  Fortes précipitations  Vent > 20 kt
SIGMETs :   Divers  Orages  Givrage  Turbulence  Onde Orograph.  Cendres Volcan.







- Altitude de l'aérodrome : 364 ft
- Voir les cartes d'approche


LFAQ - Albert Bray

DERNIER METAR :
  • 190830Z AUTO 04011KT 2900 -DZ BR SCT010 OVC018 13/11 Q1007 TEMPO SHRA BKN013 BKN030CB

METARs EXPIRÉS :
  • 190800Z AUTO 03010KT 2500 -RA BR SCT010 BKN017 BKN022 14/11 Q1007 TEMPO 4000 SHRA BR BKN030CB
  • 190730Z AUTO 02008KT 2600 BR FEW032 BKN041 BKN058 13/11 Q1007 TEMPO 4000 SHRA BR BKN030CB
  • 190700Z AUTO 01009KT 2900 BR BKN040 BKN046 BKN054 12/10 Q1007 BECMG 4000 BR
  • 190630Z AUTO 01005KT 340V040 3200 BR FEW043 12/10 Q1007 TEMPO 2000
  • 190600Z AUTO 03006KT 3400 BR NSC 12/09 Q1007 TEMPO 2000

TAF TAF LFAQ
Valide du 19 à 09h jusqu'au 19 à 18h UTC


190800Z 1909/1918 02010KT 8000 BKN030
TEMPO 1909/1918 2000 SHRA BR BKN013 BKN030CB
Pas de NOTAMs connus pour ce terrain.



MET'MAP, la Météo Aéronautique d'un coup d'oeil ! - Copyright ORBIFLY Décembre 2007 - Disclaimer

ORBIFLY MET'MAP TEAM :

Programmation & Développement : Alexandra Zaïnal
Conception & Développement : Baudouin d'Aumeries
Co-Programmation & Développement : Marc-Olivier Méhu
Soutien technique & logistique : Manuel Goepfert

Contact : metmap@orbifly.com




SOURCES & CREDITS :

   NOAA